sensor_id;sensor_type;location;lat;lon;timestamp;temperature;humidity
51825;DHT22;37879;52.986;6.282;2023-05-10T00:00:26;13.10;99.90
51825;DHT22;37879;52.986;6.282;2023-05-10T00:02:52;13.10;99.90
51825;DHT22;37879;52.986;6.282;2023-05-10T00:05:18;13.10;99.90
51825;DHT22;37879;52.986;6.282;2023-05-10T00:07:44;13.10;99.90
51825;DHT22;37879;52.986;6.282;2023-05-10T00:10:12;13.10;99.90
51825;DHT22;37879;52.986;6.282;2023-05-10T00:12:38;13.10;99.90
51825;DHT22;37879;52.986;6.282;2023-05-10T00:15:04;13.10;99.90
51825;DHT22;37879;52.986;6.282;2023-05-10T00:17:30;13.10;99.90
51825;DHT22;37879;52.986;6.282;2023-05-10T00:19:56;13.10;99.90
51825;DHT22;37879;52.986;6.282;2023-05-10T00:22:21;13.00;99.90
51825;DHT22;37879;52.986;6.282;2023-05-10T00:24:47;13.00;99.90
51825;DHT22;37879;52.986;6.282;2023-05-10T00:27:13;13.00;99.90
51825;DHT22;37879;52.986;6.282;2023-05-10T00:29:38;13.00;99.90
51825;DHT22;37879;52.986;6.282;2023-05-10T00:32:04;12.90;99.90
51825;DHT22;37879;52.986;6.282;2023-05-10T00:34:29;12.90;99.90
51825;DHT22;37879;52.986;6.282;2023-05-10T00:36:55;12.90;99.90
51825;DHT22;37879;52.986;6.282;2023-05-10T00:39:21;12.90;99.90
51825;DHT22;37879;52.986;6.282;2023-05-10T00:41:47;12.90;99.90
51825;DHT22;37879;52.986;6.282;2023-05-10T00:44:12;12.90;99.90
51825;DHT22;37879;52.986;6.282;2023-05-10T00:46:38;13.20;99.90
51825;DHT22;37879;52.986;6.282;2023-05-10T00:49:04;12.80;99.90
51825;DHT22;37879;52.986;6.282;2023-05-10T00:51:30;12.90;99.90
51825;DHT22;37879;52.986;6.282;2023-05-10T00:53:56;12.90;99.90
51825;DHT22;37879;52.986;6.282;2023-05-10T00:56:22;12.90;99.90
51825;DHT22;37879;52.986;6.282;2023-05-10T00:58:50;13.40;99.90
51825;DHT22;37879;52.986;6.282;2023-05-10T01:01:15;12.80;99.90
51825;DHT22;37879;52.986;6.282;2023-05-10T01:03:41;12.80;99.90
51825;DHT22;37879;52.986;6.282;2023-05-10T01:06:07;12.80;99.90
51825;DHT22;37879;52.986;6.282;2023-05-10T01:08:33;12.80;99.90
51825;DHT22;37879;52.986;6.282;2023-05-10T01:10:59;12.80;99.90
51825;DHT22;37879;52.986;6.282;2023-05-10T01:15:57;12.80;99.90
51825;DHT22;37879;52.986;6.282;2023-05-10T01:18:23;12.80;99.90
51825;DHT22;37879;52.986;6.282;2023-05-10T01:21:43;13.10;99.90
51825;DHT22;37879;52.986;6.282;2023-05-10T01:24:09;12.80;99.90
51825;DHT22;37879;52.986;6.282;2023-05-10T01:32:31;12.80;99.90
51825;DHT22;37879;52.986;6.282;2023-05-10T01:35:03;12.80;99.90
51825;DHT22;37879;52.986;6.282;2023-05-10T01:37:50;12.70;99.90
51825;DHT22;37879;52.986;6.282;2023-05-10T01:40:25;12.70;99.90
51825;DHT22;37879;52.986;6.282;2023-05-10T01:42:56;12.70;99.90
51825;DHT22;37879;52.986;6.282;2023-05-10T01:48:23;12.70;99.90
51825;DHT22;37879;52.986;6.282;2023-05-10T01:50:49;13.20;99.90
51825;DHT22;37879;52.986;6.282;2023-05-10T01:53:18;12.70;99.90
51825;DHT22;37879;52.986;6.282;2023-05-10T01:55:52;12.70;99.90
51825;DHT22;37879;52.986;6.282;2023-05-10T01:58:23;12.70;99.90
51825;DHT22;37879;52.986;6.282;2023-05-10T02:00:50;12.70;99.90
51825;DHT22;37879;52.986;6.282;2023-05-10T02:03:20;12.70;99.90
51825;DHT22;37879;52.986;6.282;2023-05-10T02:05:48;12.70;99.90
51825;DHT22;37879;52.986;6.282;2023-05-10T02:08:16;12.70;99.90
51825;DHT22;37879;52.986;6.282;2023-05-10T02:10:43;12.60;99.90
51825;DHT22;37879;52.986;6.282;2023-05-10T02:13:11;12.60;99.90
51825;DHT22;37879;52.986;6.282;2023-05-10T02:15:37;12.60;99.90
51825;DHT22;37879;52.986;6.282;2023-05-10T02:18:05;12.70;99.90
51825;DHT22;37879;52.986;6.282;2023-05-10T02:20:31;12.60;99.90
51825;DHT22;37879;52.986;6.282;2023-05-10T02:22:58;12.60;99.90
51825;DHT22;37879;52.986;6.282;2023-05-10T02:25:25;12.70;99.90
51825;DHT22;37879;52.986;6.282;2023-05-10T02:27:54;12.60;99.90
51825;DHT22;37879;52.986;6.282;2023-05-10T02:30:21;12.60;99.90
51825;DHT22;37879;52.986;6.282;2023-05-10T02:32:49;12.50;99.90
51825;DHT22;37879;52.986;6.282;2023-05-10T02:35:15;12.70;99.90
51825;DHT22;37879;52.986;6.282;2023-05-10T02:37:42;12.60;99.90
51825;DHT22;37879;52.986;6.282;2023-05-10T02:40:09;12.50;99.90
51825;DHT22;37879;52.986;6.282;2023-05-10T02:42:37;12.60;99.90
51825;DHT22;37879;52.986;6.282;2023-05-10T02:45:10;12.60;99.90
51825;DHT22;37879;52.986;6.282;2023-05-10T02:47:37;12.60;99.90
51825;DHT22;37879;52.986;6.282;2023-05-10T02:50:03;12.60;99.90
51825;DHT22;37879;52.986;6.282;2023-05-10T02:52:38;12.60;99.90
51825;DHT22;37879;52.986;6.282;2023-05-10T02:55:05;12.60;99.90
51825;DHT22;37879;52.986;6.282;2023-05-10T02:57:33;12.60;99.90
51825;DHT22;37879;52.986;6.282;2023-05-10T03:00:00;12.90;99.90
51825;DHT22;37879;52.986;6.282;2023-05-10T03:02:26;12.60;99.90
51825;DHT22;37879;52.986;6.282;2023-05-10T03:04:52;12.60;99.90
51825;DHT22;37879;52.986;6.282;2023-05-10T03:07:18;12.50;99.90
51825;DHT22;37879;52.986;6.282;2023-05-10T03:09:47;12.60;99.90
51825;DHT22;37879;52.986;6.282;2023-05-10T03:18:16;12.50;99.90
51825;DHT22;37879;52.986;6.282;2023-05-10T03:21:01;12.50;99.90
51825;DHT22;37879;52.986;6.282;2023-05-10T03:23:48;12.60;99.90
51825;DHT22;37879;52.986;6.282;2023-05-10T03:26:24;12.60;99.90
51825;DHT22;37879;52.986;6.282;2023-05-10T03:28:51;12.60;99.90
51825;DHT22;37879;52.986;6.282;2023-05-10T03:31:18;12.50;99.90
51825;DHT22;37879;52.986;6.282;2023-05-10T03:33:51;12.50;99.90
51825;DHT22;37879;52.986;6.282;2023-05-10T03:36:18;12.70;99.90
51825;DHT22;37879;52.986;6.282;2023-05-10T03:38:43;12.50;99.90
51825;DHT22;37879;52.986;6.282;2023-05-10T03:41:09;12.50;99.90
51825;DHT22;37879;52.986;6.282;2023-05-10T03:43:35;12.50;99.90
51825;DHT22;37879;52.986;6.282;2023-05-10T03:46:04;12.50;99.90
51825;DHT22;37879;52.986;6.282;2023-05-10T03:48:30;12.50;99.90
51825;DHT22;37879;52.986;6.282;2023-05-10T03:50:56;12.50;99.90
51825;DHT22;37879;52.986;6.282;2023-05-10T03:53:22;12.50;99.90
51825;DHT22;37879;52.986;6.282;2023-05-10T03:55:48;12.50;99.90
51825;DHT22;37879;52.986;6.282;2023-05-10T03:58:14;12.60;99.90
51825;DHT22;37879;52.986;6.282;2023-05-10T04:00:40;12.60;99.90
51825;DHT22;37879;52.986;6.282;2023-05-10T04:03:12;12.50;99.90
51825;DHT22;37879;52.986;6.282;2023-05-10T04:05:37;12.60;99.90
51825;DHT22;37879;52.986;6.282;2023-05-10T04:08:04;12.50;99.90
51825;DHT22;37879;52.986;6.282;2023-05-10T04:10:29;12.50;99.90
51825;DHT22;37879;52.986;6.282;2023-05-10T04:12:55;12.50;99.90
51825;DHT22;37879;52.986;6.282;2023-05-10T04:15:21;12.50;99.90
51825;DHT22;37879;52.986;6.282;2023-05-10T04:17:46;12.50;99.90
51825;DHT22;37879;52.986;6.282;2023-05-10T04:20:12;12.50;99.90
51825;DHT22;37879;52.986;6.282;2023-05-10T04:22:38;12.50;99.90
51825;DHT22;37879;52.986;6.282;2023-05-10T04:25:04;12.50;99.90
51825;DHT22;37879;52.986;6.282;2023-05-10T04:27:31;12.30;99.90
51825;DHT22;37879;52.986;6.282;2023-05-10T04:29:56;12.50;99.90
51825;DHT22;37879;52.986;6.282;2023-05-10T04:32:22;12.50;99.90
51825;DHT22;37879;52.986;6.282;2023-05-10T04:34:48;12.60;99.90
51825;DHT22;37879;52.986;6.282;2023-05-10T04:37:14;12.50;99.90
51825;DHT22;37879;52.986;6.282;2023-05-10T04:39:39;12.50;99.90
51825;DHT22;37879;52.986;6.282;2023-05-10T04:42:05;12.50;99.90
51825;DHT22;37879;52.986;6.282;2023-05-10T04:44:34;12.60;99.90
51825;DHT22;37879;52.986;6.282;2023-05-10T04:47:00;12.50;99.90
51825;DHT22;37879;52.986;6.282;2023-05-10T04:49:27;12.50;99.90
51825;DHT22;37879;52.986;6.282;2023-05-10T04:51:53;12.50;99.90
51825;DHT22;37879;52.986;6.282;2023-05-10T04:54:19;12.60;99.90
51825;DHT22;37879;52.986;6.282;2023-05-10T04:56:44;12.50;99.90
51825;DHT22;37879;52.986;6.282;2023-05-10T04:59:10;12.60;99.90
51825;DHT22;37879;52.986;6.282;2023-05-10T05:01:35;12.50;99.90
51825;DHT22;37879;52.986;6.282;2023-05-10T05:04:01;12.50;99.90
51825;DHT22;37879;52.986;6.282;2023-05-10T05:06:27;12.50;99.90
51825;DHT22;37879;52.986;6.282;2023-05-10T05:08:53;12.50;99.90
51825;DHT22;37879;52.986;6.282;2023-05-10T05:11:18;12.40;99.90
51825;DHT22;37879;52.986;6.282;2023-05-10T05:13:44;12.30;99.90
51825;DHT22;37879;52.986;6.282;2023-05-10T05:16:10;12.90;99.90
51825;DHT22;37879;52.986;6.282;2023-05-10T05:18:38;12.20;99.90
51825;DHT22;37879;52.986;6.282;2023-05-10T05:21:16;12.30;99.90
51825;DHT22;37879;52.986;6.282;2023-05-10T05:23:42;12.30;99.90
51825;DHT22;37879;52.986;6.282;2023-05-10T05:26:08;12.30;99.90
51825;DHT22;37879;52.986;6.282;2023-05-10T05:28:33;12.60;99.90
51825;DHT22;37879;52.986;6.282;2023-05-10T05:31:06;12.40;99.90
51825;DHT22;37879;52.986;6.282;2023-05-10T05:33:33;12.40;99.90
51825;DHT22;37879;52.986;6.282;2023-05-10T05:36:05;12.40;99.90
51825;DHT22;37879;52.986;6.282;2023-05-10T05:38:31;12.40;99.90
51825;DHT22;37879;52.986;6.282;2023-05-10T05:40:57;12.40;99.90
51825;DHT22;37879;52.986;6.282;2023-05-10T05:43:23;12.50;99.90
51825;DHT22;37879;52.986;6.282;2023-05-10T05:45:49;12.40;99.90
51825;DHT22;37879;52.986;6.282;2023-05-10T05:48:15;12.40;99.90
51825;DHT22;37879;52.986;6.282;2023-05-10T05:50:40;13.00;99.90
51825;DHT22;37879;52.986;6.282;2023-05-10T05:53:06;12.40;99.90
51825;DHT22;37879;52.986;6.282;2023-05-10T05:55:31;12.50;99.90
51825;DHT22;37879;52.986;6.282;2023-05-10T05:57:58;13.20;99.90
51825;DHT22;37879;52.986;6.282;2023-05-10T06:00:23;12.50;99.90
51825;DHT22;37879;52.986;6.282;2023-05-10T06:02:49;12.50;99.90
51825;DHT22;37879;52.986;6.282;2023-05-10T06:05:15;13.00;99.90
51825;DHT22;37879;52.986;6.282;2023-05-10T06:07:40;12.50;99.90
51825;DHT22;37879;52.986;6.282;2023-05-10T06:10:08;12.60;99.90
51825;DHT22;37879;52.986;6.282;2023-05-10T06:12:34;12.60;99.90
51825;DHT22;37879;52.986;6.282;2023-05-10T06:15:00;12.70;99.90
51825;DHT22;37879;52.986;6.282;2023-05-10T06:17:25;12.70;99.90
51825;DHT22;37879;52.986;6.282;2023-05-10T06:19:51;12.80;99.90
51825;DHT22;37879;52.986;6.282;2023-05-10T06:22:17;12.80;99.90
51825;DHT22;37879;52.986;6.282;2023-05-10T06:24:43;12.80;99.90
51825;DHT22;37879;52.986;6.282;2023-05-10T06:27:09;12.90;99.90
51825;DHT22;37879;52.986;6.282;2023-05-10T06:29:34;12.80;99.90
51825;DHT22;37879;52.986;6.282;2023-05-10T06:32:00;13.30;99.90
51825;DHT22;37879;52.986;6.282;2023-05-10T06:34:26;12.80;99.90
51825;DHT22;37879;52.986;6.282;2023-05-10T06:36:52;12.80;99.90
51825;DHT22;37879;52.986;6.282;2023-05-10T06:39:18;12.90;99.90
51825;DHT22;37879;52.986;6.282;2023-05-10T06:41:43;13.70;99.90
51825;DHT22;37879;52.986;6.282;2023-05-10T06:44:09;12.90;99.90
51825;DHT22;37879;52.986;6.282;2023-05-10T06:46:35;12.80;99.90
51825;DHT22;37879;52.986;6.282;2023-05-10T06:49:00;13.00;99.90
51825;DHT22;37879;52.986;6.282;2023-05-10T06:51:26;12.90;99.90
51825;DHT22;37879;52.986;6.282;2023-05-10T06:53:51;12.90;99.90
51825;DHT22;37879;52.986;6.282;2023-05-10T06:56:17;13.40;99.90
51825;DHT22;37879;52.986;6.282;2023-05-10T06:58:43;12.90;99.90
51825;DHT22;37879;52.986;6.282;2023-05-10T07:01:08;13.20;99.90
51825;DHT22;37879;52.986;6.282;2023-05-10T07:03:34;12.90;99.90
51825;DHT22;37879;52.986;6.282;2023-05-10T07:06:01;12.90;99.90
51825;DHT22;37879;52.986;6.282;2023-05-10T07:08:29;13.80;99.90
51825;DHT22;37879;52.986;6.282;2023-05-10T07:11:00;12.90;99.90
51825;DHT22;37879;52.986;6.282;2023-05-10T07:13:26;12.90;99.90
51825;DHT22;37879;52.986;6.282;2023-05-10T07:15:52;12.90;99.90
51825;DHT22;37879;52.986;6.282;2023-05-10T07:18:17;13.10;99.90
51825;DHT22;37879;52.986;6.282;2023-05-10T07:20:43;13.10;99.90
51825;DHT22;37879;52.986;6.282;2023-05-10T07:23:08;12.90;99.90
51825;DHT22;37879;52.986;6.282;2023-05-10T07:25:34;12.90;99.90
51825;DHT22;37879;52.986;6.282;2023-05-10T07:27:59;12.90;99.90
51825;DHT22;37879;52.986;6.282;2023-05-10T07:30:34;12.90;99.90
51825;DHT22;37879;52.986;6.282;2023-05-10T07:33:00;12.90;99.90
51825;DHT22;37879;52.986;6.282;2023-05-10T07:35:25;12.90;99.90
51825;DHT22;37879;52.986;6.282;2023-05-10T07:37:51;12.80;99.90
51825;DHT22;37879;52.986;6.282;2023-05-10T07:40:17;13.30;99.90
51825;DHT22;37879;52.986;6.282;2023-05-10T07:42:43;12.90;99.90
51825;DHT22;37879;52.986;6.282;2023-05-10T07:45:09;12.90;99.90
51825;DHT22;37879;52.986;6.282;2023-05-10T07:47:34;13.00;99.90
51825;DHT22;37879;52.986;6.282;2023-05-10T07:50:00;13.00;99.90
51825;DHT22;37879;52.986;6.282;2023-05-10T07:52:26;13.00;99.90
51825;DHT22;37879;52.986;6.282;2023-05-10T07:54:51;13.10;99.90
51825;DHT22;37879;52.986;6.282;2023-05-10T07:57:17;13.20;99.90
51825;DHT22;37879;52.986;6.282;2023-05-10T07:59:43;13.00;99.90
51825;DHT22;37879;52.986;6.282;2023-05-10T08:02:10;13.10;99.90
51825;DHT22;37879;52.986;6.282;2023-05-10T08:04:35;13.10;99.90
51825;DHT22;37879;52.986;6.282;2023-05-10T08:07:01;13.10;99.90
51825;DHT22;37879;52.986;6.282;2023-05-10T08:09:27;13.00;99.90
51825;DHT22;37879;52.986;6.282;2023-05-10T08:11:52;13.10;99.90
51825;DHT22;37879;52.986;6.282;2023-05-10T08:14:18;13.20;99.90
51825;DHT22;37879;52.986;6.282;2023-05-10T08:16:44;13.20;99.90
51825;DHT22;37879;52.986;6.282;2023-05-10T08:19:09;13.20;99.90
51825;DHT22;37879;52.986;6.282;2023-05-10T08:21:35;13.30;99.90
51825;DHT22;37879;52.986;6.282;2023-05-10T08:24:01;13.30;99.90
51825;DHT22;37879;52.986;6.282;2023-05-10T08:26:27;13.30;99.90
51825;DHT22;37879;52.986;6.282;2023-05-10T08:28:52;13.30;99.90
51825;DHT22;37879;52.986;6.282;2023-05-10T08:31:18;13.20;99.90
51825;DHT22;37879;52.986;6.282;2023-05-10T08:33:44;13.10;99.90
51825;DHT22;37879;52.986;6.282;2023-05-10T08:36:10;13.30;99.90
51825;DHT22;37879;52.986;6.282;2023-05-10T08:38:36;13.40;99.90
51825;DHT22;37879;52.986;6.282;2023-05-10T08:41:02;13.40;99.90
51825;DHT22;37879;52.986;6.282;2023-05-10T08:43:29;13.50;99.90
51825;DHT22;37879;52.986;6.282;2023-05-10T08:45:55;13.40;99.90
51825;DHT22;37879;52.986;6.282;2023-05-10T08:48:24;13.40;99.90
51825;DHT22;37879;52.986;6.282;2023-05-10T08:50:52;13.40;99.90
51825;DHT22;37879;52.986;6.282;2023-05-10T08:53:20;13.40;99.90
51825;DHT22;37879;52.986;6.282;2023-05-10T08:55:46;13.50;99.90
51825;DHT22;37879;52.986;6.282;2023-05-10T08:58:12;13.50;99.90
51825;DHT22;37879;52.986;6.282;2023-05-10T09:00:38;13.70;99.90
51825;DHT22;37879;52.986;6.282;2023-05-10T09:03:04;13.50;99.90
51825;DHT22;37879;52.986;6.282;2023-05-10T09:05:30;13.50;99.90
51825;DHT22;37879;52.986;6.282;2023-05-10T09:07:56;13.50;99.90
51825;DHT22;37879;52.986;6.282;2023-05-10T09:10:22;13.50;99.90
51825;DHT22;37879;52.986;6.282;2023-05-10T09:12:51;13.60;99.90
51825;DHT22;37879;52.986;6.282;2023-05-10T09:15:17;13.70;99.90
51825;DHT22;37879;52.986;6.282;2023-05-10T09:17:45;13.70;99.90
51825;DHT22;37879;52.986;6.282;2023-05-10T09:20:11;13.70;99.90
51825;DHT22;37879;52.986;6.282;2023-05-10T09:22:37;13.70;99.90
51825;DHT22;37879;52.986;6.282;2023-05-10T09:27:34;13.90;99.90
51825;DHT22;37879;52.986;6.282;2023-05-10T09:29:59;14.10;99.90
51825;DHT22;37879;52.986;6.282;2023-05-10T09:32:45;14.30;99.90
51825;DHT22;37879;52.986;6.282;2023-05-10T09:35:19;14.40;99.90
51825;DHT22;37879;52.986;6.282;2023-05-10T09:37:47;14.50;99.90
51825;DHT22;37879;52.986;6.282;2023-05-10T09:40:17;14.50;99.90
51825;DHT22;37879;52.986;6.282;2023-05-10T09:43:06;14.50;99.90
51825;DHT22;37879;52.986;6.282;2023-05-10T09:45:33;14.90;99.90
51825;DHT22;37879;52.986;6.282;2023-05-10T09:48:00;14.60;99.90
51825;DHT22;37879;52.986;6.282;2023-05-10T09:50:27;14.70;99.90
51825;DHT22;37879;52.986;6.282;2023-05-10T09:52:55;14.80;99.90
51825;DHT22;37879;52.986;6.282;2023-05-10T09:57:59;15.10;99.90
51825;DHT22;37879;52.986;6.282;2023-05-10T10:00:26;15.60;99.90
51825;DHT22;37879;52.986;6.282;2023-05-10T10:02:57;15.30;99.90
51825;DHT22;37879;52.986;6.282;2023-05-10T10:05:35;15.30;99.90
51825;DHT22;37879;52.986;6.282;2023-05-10T10:08:05;15.40;99.90
51825;DHT22;37879;52.986;6.282;2023-05-10T10:10:32;15.50;99.90
51825;DHT22;37879;52.986;6.282;2023-05-10T10:12:58;15.50;99.90
51825;DHT22;37879;52.986;6.282;2023-05-10T10:15:25;15.40;99.90
51825;DHT22;37879;52.986;6.282;2023-05-10T10:17:52;15.40;99.90
51825;DHT22;37879;52.986;6.282;2023-05-10T10:20:19;16.00;99.90
51825;DHT22;37879;52.986;6.282;2023-05-10T10:22:46;15.30;99.90
51825;DHT22;37879;52.986;6.282;2023-05-10T10:25:16;15.30;99.90
51825;DHT22;37879;52.986;6.282;2023-05-10T10:30:50;15.40;99.90
51825;DHT22;37879;52.986;6.282;2023-05-10T10:36:01;15.20;99.90
51825;DHT22;37879;52.986;6.282;2023-05-10T10:41:11;15.00;99.90
51825;DHT22;37879;52.986;6.282;2023-05-10T10:49:30;15.00;99.90
51825;DHT22;37879;52.986;6.282;2023-05-10T10:52:21;15.20;99.90
51825;DHT22;37879;52.986;6.282;2023-05-10T10:54:50;15.10;99.90
51825;DHT22;37879;52.986;6.282;2023-05-10T10:57:18;15.20;99.90
51825;DHT22;37879;52.986;6.282;2023-05-10T10:59:44;15.10;99.90
51825;DHT22;37879;52.986;6.282;2023-05-10T11:02:34;15.20;99.90
51825;DHT22;37879;52.986;6.282;2023-05-10T11:07:58;15.00;99.90
51825;DHT22;37879;52.986;6.282;2023-05-10T11:10:24;15.00;99.90
51825;DHT22;37879;52.986;6.282;2023-05-10T11:15:34;14.90;99.90
51825;DHT22;37879;52.986;6.282;2023-05-10T11:18:16;14.80;99.90
51825;DHT22;37879;52.986;6.282;2023-05-10T11:20:43;14.80;99.90
51825;DHT22;37879;52.986;6.282;2023-05-10T11:23:13;14.80;99.90
51825;DHT22;37879;52.986;6.282;2023-05-10T11:25:45;14.80;99.90
51825;DHT22;37879;52.986;6.282;2023-05-10T11:28:11;14.80;99.90
51825;DHT22;37879;52.986;6.282;2023-05-10T11:30:41;14.90;99.90
51825;DHT22;37879;52.986;6.282;2023-05-10T11:33:09;14.90;99.90
51825;DHT22;37879;52.986;6.282;2023-05-10T11:35:38;14.90;99.90
51825;DHT22;37879;52.986;6.282;2023-05-10T11:38:08;15.00;99.90
51825;DHT22;37879;52.986;6.282;2023-05-10T11:40:34;15.10;99.90
51825;DHT22;37879;52.986;6.282;2023-05-10T11:43:00;15.10;99.90
51825;DHT22;37879;52.986;6.282;2023-05-10T11:45:26;15.10;99.90
51825;DHT22;37879;52.986;6.282;2023-05-10T11:47:53;15.20;99.90
51825;DHT22;37879;52.986;6.282;2023-05-10T11:50:19;15.00;99.90
51825;DHT22;37879;52.986;6.282;2023-05-10T11:52:44;15.10;99.90
51825;DHT22;37879;52.986;6.282;2023-05-10T11:55:10;15.10;99.90
51825;DHT22;37879;52.986;6.282;2023-05-10T11:57:37;15.40;99.90
51825;DHT22;37879;52.986;6.282;2023-05-10T12:00:04;15.10;99.90
51825;DHT22;37879;52.986;6.282;2023-05-10T12:02:30;15.10;99.90
51825;DHT22;37879;52.986;6.282;2023-05-10T12:04:56;15.00;99.90
51825;DHT22;37879;52.986;6.282;2023-05-10T12:07:22;14.90;99.90
51825;DHT22;37879;52.986;6.282;2023-05-10T12:10:12;14.90;99.90
51825;DHT22;37879;52.986;6.282;2023-05-10T12:12:47;14.90;99.90
51825;DHT22;37879;52.986;6.282;2023-05-10T12:15:17;14.90;99.90
51825;DHT22;37879;52.986;6.282;2023-05-10T12:17:44;14.80;99.90
51825;DHT22;37879;52.986;6.282;2023-05-10T12:20:28;15.30;99.90
51825;DHT22;37879;52.986;6.282;2023-05-10T12:22:56;14.80;99.90
51825;DHT22;37879;52.986;6.282;2023-05-10T12:25:23;14.80;99.90
51825;DHT22;37879;52.986;6.282;2023-05-10T12:27:53;15.30;99.90
51825;DHT22;37879;52.986;6.282;2023-05-10T12:30:32;14.80;99.90
51825;DHT22;37879;52.986;6.282;2023-05-10T12:33:08;14.90;99.90
51825;DHT22;37879;52.986;6.282;2023-05-10T12:35:49;14.90;99.90
51825;DHT22;37879;52.986;6.282;2023-05-10T12:38:36;15.00;99.90
51825;DHT22;37879;52.986;6.282;2023-05-10T12:41:05;15.10;99.90
51825;DHT22;37879;52.986;6.282;2023-05-10T12:43:32;15.10;99.90
51825;DHT22;37879;52.986;6.282;2023-05-10T12:45:58;15.20;99.90
51825;DHT22;37879;52.986;6.282;2023-05-10T12:48:24;15.20;99.90
51825;DHT22;37879;52.986;6.282;2023-05-10T12:50:49;15.20;99.90
51825;DHT22;37879;52.986;6.282;2023-05-10T12:53:15;15.30;99.90
51825;DHT22;37879;52.986;6.282;2023-05-10T12:55:42;15.80;99.90
51825;DHT22;37879;52.986;6.282;2023-05-10T12:58:07;15.50;99.90
51825;DHT22;37879;52.986;6.282;2023-05-10T13:00:33;15.60;99.90
51825;DHT22;37879;52.986;6.282;2023-05-10T13:02:58;15.60;99.90
51825;DHT22;37879;52.986;6.282;2023-05-10T13:05:24;15.70;99.90
51825;DHT22;37879;52.986;6.282;2023-05-10T13:07:50;15.70;99.90
51825;DHT22;37879;52.986;6.282;2023-05-10T13:10:16;15.70;99.90
51825;DHT22;37879;52.986;6.282;2023-05-10T13:15:16;15.70;99.90
51825;DHT22;37879;52.986;6.282;2023-05-10T13:17:42;16.30;99.90
51825;DHT22;37879;52.986;6.282;2023-05-10T13:20:08;15.70;99.90
51825;DHT22;37879;52.986;6.282;2023-05-10T13:22:35;15.70;99.90
51825;DHT22;37879;52.986;6.282;2023-05-10T13:25:01;15.60;99.90
51825;DHT22;37879;52.986;6.282;2023-05-10T13:27:27;15.60;99.90
51825;DHT22;37879;52.986;6.282;2023-05-10T13:29:53;15.60;99.90
51825;DHT22;37879;52.986;6.282;2023-05-10T13:32:18;15.60;99.90
51825;DHT22;37879;52.986;6.282;2023-05-10T13:34:44;15.60;99.90
51825;DHT22;37879;52.986;6.282;2023-05-10T13:37:10;16.20;99.90
51825;DHT22;37879;52.986;6.282;2023-05-10T13:39:35;15.90;99.90
51825;DHT22;37879;52.986;6.282;2023-05-10T13:42:03;15.80;99.90
51825;DHT22;37879;52.986;6.282;2023-05-10T13:44:28;15.80;99.90
51825;DHT22;37879;52.986;6.282;2023-05-10T13:46:54;15.80;99.90
51825;DHT22;37879;52.986;6.282;2023-05-10T13:49:20;15.70;99.90
51825;DHT22;37879;52.986;6.282;2023-05-10T13:51:47;16.40;99.90
51825;DHT22;37879;52.986;6.282;2023-05-10T13:54:13;15.80;99.90
51825;DHT22;37879;52.986;6.282;2023-05-10T13:56:39;15.80;99.90
51825;DHT22;37879;52.986;6.282;2023-05-10T13:59:06;15.90;99.90
51825;DHT22;37879;52.986;6.282;2023-05-10T14:01:33;15.90;99.90
51825;DHT22;37879;52.986;6.282;2023-05-10T14:03:59;16.00;99.90
51825;DHT22;37879;52.986;6.282;2023-05-10T14:06:25;16.00;99.90
51825;DHT22;37879;52.986;6.282;2023-05-10T14:08:52;16.10;99.90
51825;DHT22;37879;52.986;6.282;2023-05-10T14:11:18;16.20;99.90
51825;DHT22;37879;52.986;6.282;2023-05-10T14:13:43;16.10;99.90
51825;DHT22;37879;52.986;6.282;2023-05-10T14:16:09;16.20;99.90
51825;DHT22;37879;52.986;6.282;2023-05-10T14:18:35;16.30;99.90
51825;DHT22;37879;52.986;6.282;2023-05-10T14:21:02;16.30;99.90
51825;DHT22;37879;52.986;6.282;2023-05-10T14:23:27;16.40;99.90
51825;DHT22;37879;52.986;6.282;2023-05-10T14:25:54;16.50;99.90
51825;DHT22;37879;52.986;6.282;2023-05-10T14:28:19;16.50;99.90
51825;DHT22;37879;52.986;6.282;2023-05-10T14:30:46;16.50;99.90
51825;DHT22;37879;52.986;6.282;2023-05-10T14:33:12;16.50;99.90
51825;DHT22;37879;52.986;6.282;2023-05-10T14:35:38;16.60;99.90
51825;DHT22;37879;52.986;6.282;2023-05-10T14:38:04;16.80;99.90
51825;DHT22;37879;52.986;6.282;2023-05-10T14:40:30;16.80;99.90
51825;DHT22;37879;52.986;6.282;2023-05-10T14:42:55;16.90;99.90
51825;DHT22;37879;52.986;6.282;2023-05-10T14:45:22;16.80;99.90
51825;DHT22;37879;52.986;6.282;2023-05-10T14:47:49;16.80;99.90
51825;DHT22;37879;52.986;6.282;2023-05-10T14:50:15;16.80;99.90
51825;DHT22;37879;52.986;6.282;2023-05-10T14:52:42;16.70;99.90
51825;DHT22;37879;52.986;6.282;2023-05-10T14:55:08;16.90;99.90
51825;DHT22;37879;52.986;6.282;2023-05-10T14:57:34;16.70;99.90
51825;DHT22;37879;52.986;6.282;2023-05-10T14:59:59;16.70;99.90
51825;DHT22;37879;52.986;6.282;2023-05-10T15:02:25;16.70;99.90
51825;DHT22;37879;52.986;6.282;2023-05-10T15:04:51;16.70;99.90
51825;DHT22;37879;52.986;6.282;2023-05-10T15:07:16;16.70;99.90
51825;DHT22;37879;52.986;6.282;2023-05-10T15:09:44;16.70;99.90
51825;DHT22;37879;52.986;6.282;2023-05-10T15:12:10;16.70;99.90
51825;DHT22;37879;52.986;6.282;2023-05-10T15:14:35;16.60;99.90
51825;DHT22;37879;52.986;6.282;2023-05-10T15:17:02;16.60;99.90
51825;DHT22;37879;52.986;6.282;2023-05-10T15:19:28;16.50;99.90
51825;DHT22;37879;52.986;6.282;2023-05-10T15:21:55;16.40;99.90
51825;DHT22;37879;52.986;6.282;2023-05-10T15:24:21;16.40;99.90
51825;DHT22;37879;52.986;6.282;2023-05-10T15:26:47;16.30;99.90
51825;DHT22;37879;52.986;6.282;2023-05-10T15:29:13;16.30;99.90
51825;DHT22;37879;52.986;6.282;2023-05-10T15:31:46;16.90;99.90
51825;DHT22;37879;52.986;6.282;2023-05-10T15:34:13;16.20;99.90
51825;DHT22;37879;52.986;6.282;2023-05-10T15:36:38;16.00;99.90
51825;DHT22;37879;52.986;6.282;2023-05-10T15:39:04;16.00;99.90
51825;DHT22;37879;52.986;6.282;2023-05-10T15:41:29;16.20;99.90
51825;DHT22;37879;52.986;6.282;2023-05-10T15:43:57;15.90;99.90
51825;DHT22;37879;52.986;6.282;2023-05-10T15:46:25;16.60;99.90
51825;DHT22;37879;52.986;6.282;2023-05-10T15:48:51;15.70;99.90
51825;DHT22;37879;52.986;6.282;2023-05-10T15:51:17;15.70;99.90
51825;DHT22;37879;52.986;6.282;2023-05-10T15:53:44;15.80;99.90
51825;DHT22;37879;52.986;6.282;2023-05-10T15:56:10;15.60;99.90
51825;DHT22;37879;52.986;6.282;2023-05-10T15:58:36;15.50;99.90
51825;DHT22;37879;52.986;6.282;2023-05-10T16:01:03;15.50;99.90
51825;DHT22;37879;52.986;6.282;2023-05-10T16:03:30;15.50;99.90
51825;DHT22;37879;52.986;6.282;2023-05-10T16:05:56;15.40;99.90
51825;DHT22;37879;52.986;6.282;2023-05-10T16:08:21;15.40;99.90
51825;DHT22;37879;52.986;6.282;2023-05-10T16:10:48;15.40;99.90
51825;DHT22;37879;52.986;6.282;2023-05-10T16:13:14;15.40;99.90
51825;DHT22;37879;52.986;6.282;2023-05-10T16:15:41;15.40;99.90